sensor_id;sensor_type;location;lat;lon;timestamp;pressure;altitude;pressure_sealevel;temperature;humidity
11345;BME280;5727;42.600;23.028;2022-09-09T00:00:18;93897.97;;;17.92;100.00
11345;BME280;5727;42.600;23.028;2022-09-09T00:02:59;93895.75;;;17.97;100.00
11345;BME280;5727;42.600;23.028;2022-09-09T00:05:34;93893.47;;;17.99;100.00
11345;BME280;5727;42.600;23.028;2022-09-09T00:08:13;93894.97;;;17.97;100.00
11345;BME280;5727;42.600;23.028;2022-09-09T00:10:41;93899.50;;;17.96;100.00
11345;BME280;5727;42.600;23.028;2022-09-09T00:13:16;93899.91;;;17.98;100.00
11345;BME280;5727;42.600;23.028;2022-09-09T00:15:54;93890.41;;;17.94;100.00
11345;BME280;5727;42.600;23.028;2022-09-09T00:18:27;93893.34;;;17.85;100.00
11345;BME280;5727;42.600;23.028;2022-09-09T00:20:58;93876.28;;;17.83;100.00
11345;BME280;5727;42.600;23.028;2022-09-09T00:23:32;93876.75;;;17.88;100.00
11345;BME280;5727;42.600;23.028;2022-09-09T00:26:05;93874.44;;;17.87;100.00
11345;BME280;5727;42.600;23.028;2022-09-09T00:28:39;93875.59;;;17.89;100.00
11345;BME280;5727;42.600;23.028;2022-09-09T00:31:12;93868.78;;;17.88;100.00
11345;BME280;5727;42.600;23.028;2022-09-09T00:33:40;93876.34;;;17.86;100.00
11345;BME280;5727;42.600;23.028;2022-09-09T00:36:13;93874.78;;;17.82;100.00
11345;BME280;5727;42.600;23.028;2022-09-09T00:38:44;93869.84;;;17.80;100.00
11345;BME280;5727;42.600;23.028;2022-09-09T00:41:17;93873.97;;;17.74;100.00
11345;BME280;5727;42.600;23.028;2022-09-09T00:43:53;93876.59;;;17.74;100.00
11345;BME280;5727;42.600;23.028;2022-09-09T00:46:44;93864.34;;;17.56;100.00
11345;BME280;5727;42.600;23.028;2022-09-09T00:49:22;93866.47;;;17.47;100.00
11345;BME280;5727;42.600;23.028;2022-09-09T00:52:02;93857.41;;;17.48;100.00
11345;BME280;5727;42.600;23.028;2022-09-09T00:54:40;93861.94;;;17.47;100.00
11345;BME280;5727;42.600;23.028;2022-09-09T00:57:23;93862.78;;;17.51;100.00
11345;BME280;5727;42.600;23.028;2022-09-09T01:00:17;93870.50;;;17.33;100.00
11345;BME280;5727;42.600;23.028;2022-09-09T01:02:55;93870.13;;;17.35;100.00
11345;BME280;5727;42.600;23.028;2022-09-09T01:05:35;93866.28;;;17.29;100.00
11345;BME280;5727;42.600;23.028;2022-09-09T01:08:21;93874.63;;;17.31;100.00
11345;BME280;5727;42.600;23.028;2022-09-09T01:10:54;93884.38;;;17.20;100.00
11345;BME280;5727;42.600;23.028;2022-09-09T01:13:25;93885.66;;;17.00;100.00
11345;BME280;5727;42.600;23.028;2022-09-09T01:15:53;93877.22;;;16.91;100.00
11345;BME280;5727;42.600;23.028;2022-09-09T01:18:22;93869.69;;;16.93;100.00
11345;BME280;5727;42.600;23.028;2022-09-09T01:20:58;93873.50;;;16.95;100.00
11345;BME280;5727;42.600;23.028;2022-09-09T01:23:46;93862.06;;;16.88;100.00
11345;BME280;5727;42.600;23.028;2022-09-09T01:26:22;93862.97;;;17.02;100.00
11345;BME280;5727;42.600;23.028;2022-09-09T01:28:50;93869.13;;;17.10;100.00
11345;BME280;5727;42.600;23.028;2022-09-09T01:31:21;93860.63;;;16.94;100.00
11345;BME280;5727;42.600;23.028;2022-09-09T01:33:49;93871.25;;;16.97;100.00
11345;BME280;5727;42.600;23.028;2022-09-09T01:36:21;93870.59;;;17.04;100.00
11345;BME280;5727;42.600;23.028;2022-09-09T01:38:51;93870.88;;;16.99;100.00
11345;BME280;5727;42.600;23.028;2022-09-09T01:41:19;93879.56;;;16.96;100.00
11345;BME280;5727;42.600;23.028;2022-09-09T01:43:47;93870.34;;;16.83;100.00
11345;BME280;5727;42.600;23.028;2022-09-09T01:46:14;93872.56;;;16.81;100.00
11345;BME280;5727;42.600;23.028;2022-09-09T01:48:41;93866.56;;;16.84;100.00
11345;BME280;5727;42.600;23.028;2022-09-09T01:51:09;93869.94;;;16.81;100.00
11345;BME280;5727;42.600;23.028;2022-09-09T01:53:37;93873.19;;;16.71;100.00
11345;BME280;5727;42.600;23.028;2022-09-09T01:56:15;93875.00;;;16.63;100.00
11345;BME280;5727;42.600;23.028;2022-09-09T01:59:01;93876.91;;;16.40;100.00
11345;BME280;5727;42.600;23.028;2022-09-09T02:01:42;93872.56;;;16.51;100.00
11345;BME280;5727;42.600;23.028;2022-09-09T02:04:22;93876.47;;;16.61;100.00
11345;BME280;5727;42.600;23.028;2022-09-09T02:06:54;93870.84;;;16.66;100.00
11345;BME280;5727;42.600;23.028;2022-09-09T02:09:23;93873.91;;;16.68;100.00
11345;BME280;5727;42.600;23.028;2022-09-09T02:12:01;93869.75;;;16.67;100.00
11345;BME280;5727;42.600;23.028;2022-09-09T02:14:36;93872.44;;;16.70;100.00
11345;BME280;5727;42.600;23.028;2022-09-09T02:17:08;93870.16;;;16.69;100.00
11345;BME280;5727;42.600;23.028;2022-09-09T02:19:39;93874.00;;;16.75;100.00
11345;BME280;5727;42.600;23.028;2022-09-09T02:22:07;93871.78;;;16.77;100.00
11345;BME280;5727;42.600;23.028;2022-09-09T02:24:38;93880.13;;;16.79;100.00
11345;BME280;5727;42.600;23.028;2022-09-09T02:27:08;93891.00;;;16.74;100.00
11345;BME280;5727;42.600;23.028;2022-09-09T02:29:39;93881.00;;;16.60;100.00
11345;BME280;5727;42.600;23.028;2022-09-09T02:32:11;93886.38;;;16.41;100.00
11345;BME280;5727;42.600;23.028;2022-09-09T02:34:43;93895.25;;;16.29;100.00
11345;BME280;5727;42.600;23.028;2022-09-09T02:37:11;93891.31;;;16.16;100.00
11345;BME280;5727;42.600;23.028;2022-09-09T02:39:39;93894.03;;;16.23;100.00
11345;BME280;5727;42.600;23.028;2022-09-09T02:42:07;93891.72;;;16.18;100.00
11345;BME280;5727;42.600;23.028;2022-09-09T02:44:36;93887.78;;;16.09;100.00
11345;BME280;5727;42.600;23.028;2022-09-09T02:47:29;93889.19;;;16.03;100.00
11345;BME280;5727;42.600;23.028;2022-09-09T02:50:06;93888.97;;;16.11;100.00
11345;BME280;5727;42.600;23.028;2022-09-09T02:52:41;93881.09;;;16.15;100.00
11345;BME280;5727;42.600;23.028;2022-09-09T02:55:17;93887.59;;;16.21;100.00
11345;BME280;5727;42.600;23.028;2022-09-09T02:57:47;93882.16;;;16.10;100.00
11345;BME280;5727;42.600;23.028;2022-09-09T03:00:22;93880.50;;;16.02;100.00
11345;BME280;5727;42.600;23.028;2022-09-09T03:02:50;93882.88;;;16.07;100.00
11345;BME280;5727;42.600;23.028;2022-09-09T03:05:16;93872.38;;;16.14;100.00
11345;BME280;5727;42.600;23.028;2022-09-09T03:07:43;93878.13;;;16.20;100.00
11345;BME280;5727;42.600;23.028;2022-09-09T03:10:10;93881.63;;;16.27;100.00
11345;BME280;5727;42.600;23.028;2022-09-09T03:12:37;93887.75;;;16.31;100.00
11345;BME280;5727;42.600;23.028;2022-09-09T03:15:05;93883.22;;;16.32;100.00
11345;BME280;5727;42.600;23.028;2022-09-09T03:17:33;93885.47;;;16.30;100.00
11345;BME280;5727;42.600;23.028;2022-09-09T03:20:01;93884.00;;;16.32;100.00
11345;BME280;5727;42.600;23.028;2022-09-09T03:22:28;93883.28;;;16.35;100.00
11345;BME280;5727;42.600;23.028;2022-09-09T03:24:54;93900.19;;;16.31;100.00
11345;BME280;5727;42.600;23.028;2022-09-09T03:27:21;93890.09;;;16.36;100.00
11345;BME280;5727;42.600;23.028;2022-09-09T03:29:48;93884.09;;;16.39;100.00
11345;BME280;5727;42.600;23.028;2022-09-09T03:32:16;93885.25;;;16.42;100.00
11345;BME280;5727;42.600;23.028;2022-09-09T03:34:44;93884.91;;;16.43;100.00
11345;BME280;5727;42.600;23.028;2022-09-09T03:37:12;93888.78;;;16.50;100.00
11345;BME280;5727;42.600;23.028;2022-09-09T03:39:39;93880.13;;;16.53;100.00
11345;BME280;5727;42.600;23.028;2022-09-09T03:42:06;93884.66;;;16.52;100.00
11345;BME280;5727;42.600;23.028;2022-09-09T03:44:33;93881.72;;;16.57;100.00
11345;BME280;5727;42.600;23.028;2022-09-09T03:47:00;93884.41;;;16.61;100.00
11345;BME280;5727;42.600;23.028;2022-09-09T03:49:27;93878.28;;;16.57;100.00
11345;BME280;5727;42.600;23.028;2022-09-09T03:51:56;93880.50;;;16.51;100.00
11345;BME280;5727;42.600;23.028;2022-09-09T03:54:24;93878.22;;;16.50;100.00
11345;BME280;5727;42.600;23.028;2022-09-09T03:56:51;93870.53;;;16.44;100.00
11345;BME280;5727;42.600;23.028;2022-09-09T03:59:18;93866.44;;;16.47;100.00
11345;BME280;5727;42.600;23.028;2022-09-09T04:01:45;93867.63;;;16.50;100.00
11345;BME280;5727;42.600;23.028;2022-09-09T04:04:12;93883.50;;;16.50;100.00
11345;BME280;5727;42.600;23.028;2022-09-09T04:06:39;93878.97;;;16.50;100.00
11345;BME280;5727;42.600;23.028;2022-09-09T04:09:07;93893.34;;;16.53;100.00
11345;BME280;5727;42.600;23.028;2022-09-09T04:11:34;93883.63;;;16.60;100.00
11345;BME280;5727;42.600;23.028;2022-09-09T04:14:02;93887.44;;;16.63;100.00
11345;BME280;5727;42.600;23.028;2022-09-09T04:16:29;93887.75;;;16.31;100.00
11345;BME280;5727;42.600;23.028;2022-09-09T04:18:56;93882.22;;;16.40;100.00
11345;BME280;5727;42.600;23.028;2022-09-09T04:21:23;93880.63;;;16.35;100.00
11345;BME280;5727;42.600;23.028;2022-09-09T04:23:50;93888.66;;;16.42;100.00
11345;BME280;5727;42.600;23.028;2022-09-09T04:26:18;93881.25;;;16.52;100.00
11345;BME280;5727;42.600;23.028;2022-09-09T04:28:45;93889.38;;;16.39;100.00
11345;BME280;5727;42.600;23.028;2022-09-09T04:31:15;93889.38;;;16.39;100.00
11345;BME280;5727;42.600;23.028;2022-09-09T04:33:43;93892.94;;;16.51;100.00
11345;BME280;5727;42.600;23.028;2022-09-09T04:36:10;93894.84;;;16.27;100.00
11345;BME280;5727;42.600;23.028;2022-09-09T04:38:38;93897.22;;;16.32;100.00
11345;BME280;5727;42.600;23.028;2022-09-09T04:41:05;93899.31;;;16.23;100.00
11345;BME280;5727;42.600;23.028;2022-09-09T04:43:34;93884.88;;;15.91;100.00
11345;BME280;5727;42.600;23.028;2022-09-09T04:46:00;93890.63;;;15.97;100.00
11345;BME280;5727;42.600;23.028;2022-09-09T04:48:27;93888.69;;;15.94;100.00
11345;BME280;5727;42.600;23.028;2022-09-09T04:50:56;93883.88;;;15.99;100.00
11345;BME280;5727;42.600;23.028;2022-09-09T04:53:23;93883.56;;;16.04;100.00
11345;BME280;5727;42.600;23.028;2022-09-09T04:55:50;93877.72;;;16.18;100.00
11345;BME280;5727;42.600;23.028;2022-09-09T04:58:17;93866.44;;;16.21;100.00
11345;BME280;5727;42.600;23.028;2022-09-09T05:00:48;93857.19;;;16.34;100.00
11345;BME280;5727;42.600;23.028;2022-09-09T05:03:16;93857.69;;;16.43;100.00
11345;BME280;5727;42.600;23.028;2022-09-09T05:05:42;93861.50;;;16.45;100.00
11345;BME280;5727;42.600;23.028;2022-09-09T05:08:10;93864.56;;;16.47;100.00
11345;BME280;5727;42.600;23.028;2022-09-09T05:10:37;93871.13;;;16.57;100.00
11345;BME280;5727;42.600;23.028;2022-09-09T05:13:07;93866.03;;;16.45;100.00
11345;BME280;5727;42.600;23.028;2022-09-09T05:15:34;93859.69;;;16.50;100.00
11345;BME280;5727;42.600;23.028;2022-09-09T05:18:02;93863.44;;;16.48;100.00
11345;BME280;5727;42.600;23.028;2022-09-09T05:20:29;93858.50;;;16.47;100.00
11345;BME280;5727;42.600;23.028;2022-09-09T05:22:56;93865.81;;;16.31;100.00
11345;BME280;5727;42.600;23.028;2022-09-09T05:25:23;93860.84;;;16.26;100.00
11345;BME280;5727;42.600;23.028;2022-09-09T05:27:51;93859.03;;;16.30;100.00
11345;BME280;5727;42.600;23.028;2022-09-09T05:30:19;93852.72;;;16.38;100.00
11345;BME280;5727;42.600;23.028;2022-09-09T05:32:46;93835.75;;;16.42;100.00
11345;BME280;5727;42.600;23.028;2022-09-09T05:35:15;93843.31;;;16.40;100.00
11345;BME280;5727;42.600;23.028;2022-09-09T05:37:44;93850.75;;;16.58;100.00
11345;BME280;5727;42.600;23.028;2022-09-09T05:40:11;93850.41;;;16.63;100.00
11345;BME280;5727;42.600;23.028;2022-09-09T05:42:38;93862.44;;;16.57;100.00
11345;BME280;5727;42.600;23.028;2022-09-09T05:45:06;93866.38;;;16.70;100.00
11345;BME280;5727;42.600;23.028;2022-09-09T05:47:34;93858.84;;;16.72;100.00
11345;BME280;5727;42.600;23.028;2022-09-09T05:50:03;93872.66;;;16.88;100.00
11345;BME280;5727;42.600;23.028;2022-09-09T05:52:31;93869.78;;;17.00;100.00
11345;BME280;5727;42.600;23.028;2022-09-09T05:54:58;93874.13;;;16.85;100.00
11345;BME280;5727;42.600;23.028;2022-09-09T05:57:25;93881.66;;;16.83;100.00
11345;BME280;5727;42.600;23.028;2022-09-09T05:59:51;93881.63;;;16.80;100.00
11345;BME280;5727;42.600;23.028;2022-09-09T06:02:18;93878.28;;;16.83;100.00
11345;BME280;5727;42.600;23.028;2022-09-09T06:04:45;93883.31;;;16.95;100.00
11345;BME280;5727;42.600;23.028;2022-09-09T06:07:12;93876.66;;;17.08;100.00
11345;BME280;5727;42.600;23.028;2022-09-09T06:09:41;93889.66;;;17.20;100.00
11345;BME280;5727;42.600;23.028;2022-09-09T06:12:08;93896.50;;;17.21;100.00
11345;BME280;5727;42.600;23.028;2022-09-09T06:14:34;93881.44;;;17.28;100.00
11345;BME280;5727;42.600;23.028;2022-09-09T06:17:02;93872.09;;;17.38;100.00
11345;BME280;5727;42.600;23.028;2022-09-09T06:19:29;93874.16;;;17.55;100.00
11345;BME280;5727;42.600;23.028;2022-09-09T06:21:56;93878.03;;;17.65;100.00
11345;BME280;5727;42.600;23.028;2022-09-09T06:24:22;93872.13;;;17.82;100.00
11345;BME280;5727;42.600;23.028;2022-09-09T06:26:50;93871.53;;;18.02;100.00
11345;BME280;5727;42.600;23.028;2022-09-09T06:29:17;93870.19;;;18.22;100.00
11345;BME280;5727;42.600;23.028;2022-09-09T06:31:44;93878.69;;;18.46;100.00
11345;BME280;5727;42.600;23.028;2022-09-09T06:34:11;93887.47;;;18.57;100.00
11345;BME280;5727;42.600;23.028;2022-09-09T06:36:39;93871.94;;;18.59;100.00
11345;BME280;5727;42.600;23.028;2022-09-09T06:39:06;93876.53;;;18.69;100.00
11345;BME280;5727;42.600;23.028;2022-09-09T06:41:34;93881.19;;;18.89;100.00
11345;BME280;5727;42.600;23.028;2022-09-09T06:44:02;93886.56;;;19.07;100.00
11345;BME280;5727;42.600;23.028;2022-09-09T06:46:30;93876.75;;;19.22;100.00
11345;BME280;5727;42.600;23.028;2022-09-09T06:48:59;93886.63;;;19.21;100.00
11345;BME280;5727;42.600;23.028;2022-09-09T06:51:27;93892.00;;;19.35;100.00
11345;BME280;5727;42.600;23.028;2022-09-09T06:53:55;93892.78;;;19.43;100.00
11345;BME280;5727;42.600;23.028;2022-09-09T06:56:25;93889.03;;;19.58;100.00
11345;BME280;5727;42.600;23.028;2022-09-09T06:58:55;93893.97;;;19.73;100.00
11345;BME280;5727;42.600;23.028;2022-09-09T07:01:24;93889.81;;;19.72;100.00
11345;BME280;5727;42.600;23.028;2022-09-09T07:03:52;93890.97;;;19.89;100.00
11345;BME280;5727;42.600;23.028;2022-09-09T07:06:22;93885.28;;;20.04;100.00
11345;BME280;5727;42.600;23.028;2022-09-09T07:08:50;93885.69;;;20.21;100.00
11345;BME280;5727;42.600;23.028;2022-09-09T07:11:18;93885.66;;;20.45;100.00
11345;BME280;5727;42.600;23.028;2022-09-09T07:13:45;93879.16;;;20.67;100.00
11345;BME280;5727;42.600;23.028;2022-09-09T07:16:14;93885.94;;;20.89;100.00
11345;BME280;5727;42.600;23.028;2022-09-09T07:18:42;93881.34;;;21.04;100.00
11345;BME280;5727;42.600;23.028;2022-09-09T07:21:11;93882.06;;;21.19;100.00
11345;BME280;5727;42.600;23.028;2022-09-09T07:23:38;93883.50;;;21.37;100.00
11345;BME280;5727;42.600;23.028;2022-09-09T07:26:08;93894.03;;;21.62;100.00
11345;BME280;5727;42.600;23.028;2022-09-09T07:28:36;93882.84;;;21.88;100.00
11345;BME280;5727;42.600;23.028;2022-09-09T07:31:03;93877.69;;;22.11;100.00
11345;BME280;5727;42.600;23.028;2022-09-09T07:33:31;93892.78;;;22.35;100.00
11345;BME280;5727;42.600;23.028;2022-09-09T07:36:05;93889.53;;;22.58;100.00
11345;BME280;5727;42.600;23.028;2022-09-09T07:38:37;93896.13;;;22.87;100.00
11345;BME280;5727;42.600;23.028;2022-09-09T07:41:04;93880.47;;;23.19;100.00
11345;BME280;5727;42.600;23.028;2022-09-09T07:43:32;93883.59;;;23.14;100.00
11345;BME280;5727;42.600;23.028;2022-09-09T07:46:00;93889.38;;;23.43;100.00
11345;BME280;5727;42.600;23.028;2022-09-09T07:48:27;93894.69;;;23.73;100.00
11345;BME280;5727;42.600;23.028;2022-09-09T07:51:04;93888.22;;;23.71;100.00
11345;BME280;5727;42.600;23.028;2022-09-09T07:53:32;93893.97;;;23.69;100.00
11345;BME280;5727;42.600;23.028;2022-09-09T07:56:03;93886.06;;;23.62;100.00
11345;BME280;5727;42.600;23.028;2022-09-09T07:58:29;93892.09;;;23.39;100.00
11345;BME280;5727;42.600;23.028;2022-09-09T08:00:56;93901.03;;;23.56;100.00
11345;BME280;5727;42.600;23.028;2022-09-09T08:03:24;93896.66;;;23.69;100.00
11345;BME280;5727;42.600;23.028;2022-09-09T08:05:50;93890.16;;;23.97;100.00
11345;BME280;5727;42.600;23.028;2022-09-09T08:08:19;93888.13;;;24.31;100.00
11345;BME280;5727;42.600;23.028;2022-09-09T08:10:45;93897.56;;;24.62;100.00
11345;BME280;5727;42.600;23.028;2022-09-09T08:13:12;93885.72;;;24.83;100.00
11345;BME280;5727;42.600;23.028;2022-09-09T08:15:39;93892.41;;;24.94;100.00
11345;BME280;5727;42.600;23.028;2022-09-09T08:18:06;93895.63;;;24.86;100.00
11345;BME280;5727;42.600;23.028;2022-09-09T08:20:36;93892.47;;;24.91;100.00
11345;BME280;5727;42.600;23.028;2022-09-09T08:23:03;93894.66;;;24.96;87.89
11345;BME280;5727;42.600;23.028;2022-09-09T08:25:31;93883.94;;;25.15;89.34
11345;BME280;5727;42.600;23.028;2022-09-09T08:28:00;93888.63;;;25.31;87.08
11345;BME280;5727;42.600;23.028;2022-09-09T08:30:27;93889.94;;;25.43;84.28
11345;BME280;5727;42.600;23.028;2022-09-09T08:32:53;93877.91;;;25.51;83.99
11345;BME280;5727;42.600;23.028;2022-09-09T08:35:20;93881.69;;;25.33;82.19
11345;BME280;5727;42.600;23.028;2022-09-09T08:37:47;93883.88;;;24.99;83.30
11345;BME280;5727;42.600;23.028;2022-09-09T08:40:23;93883.59;;;24.71;85.19
11345;BME280;5727;42.600;23.028;2022-09-09T08:42:57;93874.44;;;24.72;84.01
11345;BME280;5727;42.600;23.028;2022-09-09T08:45:32;93880.22;;;24.90;82.49
11345;BME280;5727;42.600;23.028;2022-09-09T08:48:19;93876.19;;;25.21;80.50
11345;BME280;5727;42.600;23.028;2022-09-09T08:50:50;93873.03;;;25.26;80.04
11345;BME280;5727;42.600;23.028;2022-09-09T08:53:20;93878.59;;;25.35;79.34
11345;BME280;5727;42.600;23.028;2022-09-09T08:55:51;93878.38;;;25.46;78.43
11345;BME280;5727;42.600;23.028;2022-09-09T08:58:23;93877.13;;;25.70;77.06
11345;BME280;5727;42.600;23.028;2022-09-09T09:01:11;93879.59;;;25.96;75.82
11345;BME280;5727;42.600;23.028;2022-09-09T09:03:50;93882.56;;;26.18;76.89
11345;BME280;5727;42.600;23.028;2022-09-09T09:06:29;93874.16;;;26.32;76.14
11345;BME280;5727;42.600;23.028;2022-09-09T09:09:07;93875.16;;;26.54;74.30
11345;BME280;5727;42.600;23.028;2022-09-09T09:11:36;93873.47;;;26.60;73.44
11345;BME280;5727;42.600;23.028;2022-09-09T09:14:09;93878.16;;;26.72;71.25
11345;BME280;5727;42.600;23.028;2022-09-09T09:16:45;93878.16;;;26.72;71.12
11345;BME280;5727;42.600;23.028;2022-09-09T09:19:15;93878.50;;;26.74;71.49
11345;BME280;5727;42.600;23.028;2022-09-09T09:21:44;93878.38;;;26.49;73.04
11345;BME280;5727;42.600;23.028;2022-09-09T09:24:18;93877.88;;;26.22;73.24
11345;BME280;5727;42.600;23.028;2022-09-09T09:26:45;93871.56;;;26.28;74.19
11345;BME280;5727;42.600;23.028;2022-09-09T09:29:16;93870.03;;;26.44;73.57
11345;BME280;5727;42.600;23.028;2022-09-09T09:31:45;93853.03;;;26.63;72.62
11345;BME280;5727;42.600;23.028;2022-09-09T09:34:14;93866.81;;;26.81;71.06
11345;BME280;5727;42.600;23.028;2022-09-09T09:36:44;93862.56;;;26.96;70.92
11345;BME280;5727;42.600;23.028;2022-09-09T09:39:23;93854.06;;;26.97;71.65
11345;BME280;5727;42.600;23.028;2022-09-09T09:41:52;93861.22;;;26.88;71.09
11345;BME280;5727;42.600;23.028;2022-09-09T09:44:25;93858.75;;;26.81;70.98
11345;BME280;5727;42.600;23.028;2022-09-09T09:47:04;93859.34;;;26.72;71.43
11345;BME280;5727;42.600;23.028;2022-09-09T09:49:31;93866.25;;;26.73;72.48
11345;BME280;5727;42.600;23.028;2022-09-09T09:52:00;93860.38;;;26.46;72.18
11345;BME280;5727;42.600;23.028;2022-09-09T09:54:28;93857.31;;;26.32;72.75
11345;BME280;5727;42.600;23.028;2022-09-09T09:56:56;93868.56;;;26.10;73.88
11345;BME280;5727;42.600;23.028;2022-09-09T09:59:35;93867.81;;;25.90;74.78
11345;BME280;5727;42.600;23.028;2022-09-09T10:02:19;93871.63;;;25.93;75.15
11345;BME280;5727;42.600;23.028;2022-09-09T10:05:01;93874.59;;;25.79;76.79
11345;BME280;5727;42.600;23.028;2022-09-09T10:07:27;93878.69;;;25.67;77.50
11345;BME280;5727;42.600;23.028;2022-09-09T10:09:55;93881.13;;;25.42;78.28
11345;BME280;5727;42.600;23.028;2022-09-09T10:12:32;93887.66;;;25.21;79.86
11345;BME280;5727;42.600;23.028;2022-09-09T10:15:21;93876.59;;;25.00;81.25
11345;BME280;5727;42.600;23.028;2022-09-09T10:17:59;93869.91;;;24.88;83.47
11345;BME280;5727;42.600;23.028;2022-09-09T10:20:37;93878.50;;;24.99;82.43
11345;BME280;5727;42.600;23.028;2022-09-09T10:23:18;93889.59;;;24.82;83.79
11345;BME280;5727;42.600;23.028;2022-09-09T10:25:59;93888.88;;;24.78;84.62
11345;BME280;5727;42.600;23.028;2022-09-09T10:28:56;93893.06;;;24.56;85.57
11345;BME280;5727;42.600;23.028;2022-09-09T10:31:35;93893.00;;;24.36;87.38
11345;BME280;5727;42.600;23.028;2022-09-09T10:34:14;93893.25;;;24.45;87.20
11345;BME280;5727;42.600;23.028;2022-09-09T10:36:47;93889.47;;;24.42;88.41
11345;BME280;5727;42.600;23.028;2022-09-09T10:39:29;93895.38;;;24.53;87.10
11345;BME280;5727;42.600;23.028;2022-09-09T10:42:03;93894.94;;;24.35;88.10
11345;BME280;5727;42.600;23.028;2022-09-09T10:44:49;93896.50;;;24.33;88.22
11345;BME280;5727;42.600;23.028;2022-09-09T10:47:37;93903.84;;;24.29;88.60
11345;BME280;5727;42.600;23.028;2022-09-09T10:50:35;93906.44;;;24.32;89.50
11345;BME280;5727;42.600;23.028;2022-09-09T10:53:14;93905.88;;;24.44;88.10
11345;BME280;5727;42.600;23.028;2022-09-09T10:55:45;93913.63;;;24.39;88.80
11345;BME280;5727;42.600;23.028;2022-09-09T10:58:20;93916.16;;;24.23;88.22
11345;BME280;5727;42.600;23.028;2022-09-09T11:00:53;93909.84;;;24.36;88.37
11345;BME280;5727;42.600;23.028;2022-09-09T11:03:26;93913.22;;;24.40;87.90
11345;BME280;5727;42.600;23.028;2022-09-09T11:05:57;93911.59;;;24.46;87.84
11345;BME280;5727;42.600;23.028;2022-09-09T11:08:27;93914.41;;;24.36;89.46
11345;BME280;5727;42.600;23.028;2022-09-09T11:11:00;93898.94;;;24.24;89.83
11345;BME280;5727;42.600;23.028;2022-09-09T11:13:33;93891.84;;;24.14;91.57
11345;BME280;5727;42.600;23.028;2022-09-09T11:16:15;93886.53;;;23.84;93.73
11345;BME280;5727;42.600;23.028;2022-09-09T11:18:45;93884.22;;;23.86;94.99
11345;BME280;5727;42.600;23.028;2022-09-09T11:21:18;93879.81;;;23.99;96.35
11345;BME280;5727;42.600;23.028;2022-09-09T11:23:50;93872.88;;;24.28;95.52
11345;BME280;5727;42.600;23.028;2022-09-09T11:26:27;93864.34;;;24.56;95.39
11345;BME280;5727;42.600;23.028;2022-09-09T11:29:07;93836.94;;;24.72;94.38
11345;BME280;5727;42.600;23.028;2022-09-09T11:31:45;93823.25;;;25.05;94.65
11345;BME280;5727;42.600;23.028;2022-09-09T11:34:23;93823.31;;;25.41;93.23
11345;BME280;5727;42.600;23.028;2022-09-09T11:37:08;93821.44;;;25.74;91.03
11345;BME280;5727;42.600;23.028;2022-09-09T11:40:04;93831.69;;;25.95;87.97
11345;BME280;5727;42.600;23.028;2022-09-09T11:42:35;93839.41;;;26.09;86.65
11345;BME280;5727;42.600;23.028;2022-09-09T11:45:19;93834.13;;;25.89;83.76
11345;BME280;5727;42.600;23.028;2022-09-09T11:47:52;93832.97;;;25.55;86.15
11345;BME280;5727;42.600;23.028;2022-09-09T11:50:45;93825.41;;;25.50;87.47
11345;BME280;5727;42.600;23.028;2022-09-09T11:53:21;93826.25;;;25.47;84.96
11345;BME280;5727;42.600;23.028;2022-09-09T11:56:10;93814.59;;;25.17;86.27
11345;BME280;5727;42.600;23.028;2022-09-09T11:58:43;93826.00;;;25.21;87.21
11345;BME280;5727;42.600;23.028;2022-09-09T12:01:33;93817.88;;;25.45;86.44
11345;BME280;5727;42.600;23.028;2022-09-09T12:04:29;93825.19;;;25.60;86.04
11345;BME280;5727;42.600;23.028;2022-09-09T12:07:00;93818.56;;;25.65;83.73
11345;BME280;5727;42.600;23.028;2022-09-09T12:09:43;93821.44;;;25.74;81.08
11345;BME280;5727;42.600;23.028;2022-09-09T12:12:30;93821.16;;;25.52;82.29
11345;BME280;5727;42.600;23.028;2022-09-09T12:15:19;93821.78;;;25.40;83.66
11345;BME280;5727;42.600;23.028;2022-09-09T12:17:48;93809.47;;;25.23;85.56
11345;BME280;5727;42.600;23.028;2022-09-09T12:20:19;93818.91;;;25.11;86.42
11345;BME280;5727;42.600;23.028;2022-09-09T12:23:16;93808.16;;;24.95;88.78
11345;BME280;5727;42.600;23.028;2022-09-09T12:25:57;93805.84;;;25.13;88.07
11345;BME280;5727;42.600;23.028;2022-09-09T12:28:31;93817.19;;;25.01;89.05
11345;BME280;5727;42.600;23.028;2022-09-09T12:31:06;93807.59;;;24.84;90.40
11345;BME280;5727;42.600;23.028;2022-09-09T12:33:36;93801.53;;;24.61;92.25
11345;BME280;5727;42.600;23.028;2022-09-09T12:36:09;93791.88;;;24.63;92.06
11345;BME280;5727;42.600;23.028;2022-09-09T12:38:41;93795.75;;;24.62;91.97
11345;BME280;5727;42.600;23.028;2022-09-09T12:41:18;93790.91;;;24.34;94.83
11345;BME280;5727;42.600;23.028;2022-09-09T12:43:46;93791.44;;;24.25;96.96
11345;BME280;5727;42.600;23.028;2022-09-09T12:46:20;93774.16;;;24.30;95.61
11345;BME280;5727;42.600;23.028;2022-09-09T12:48:52;93775.41;;;24.45;96.08
11345;BME280;5727;42.600;23.028;2022-09-09T12:51:23;93769.97;;;24.48;94.42
11345;BME280;5727;42.600;23.028;2022-09-09T12:53:52;93760.72;;;24.53;91.70
11345;BME280;5727;42.600;23.028;2022-09-09T12:56:21;93763.53;;;24.66;93.18
11345;BME280;5727;42.600;23.028;2022-09-09T12:58:50;93757.69;;;24.51;91.33
11345;BME280;5727;42.600;23.028;2022-09-09T13:01:24;93751.16;;;24.32;92.59
11345;BME280;5727;42.600;23.028;2022-09-09T13:03:52;93755.06;;;24.28;92.31
11345;BME280;5727;42.600;23.028;2022-09-09T13:06:21;93752.94;;;24.39;92.00
11345;BME280;5727;42.600;23.028;2022-09-09T13:08:49;93753.03;;;24.55;91.08
11345;BME280;5727;42.600;23.028;2022-09-09T13:11:21;93750.97;;;24.82;90.82
11345;BME280;5727;42.600;23.028;2022-09-09T13:13:51;93754.38;;;25.02;88.79
11345;BME280;5727;42.600;23.028;2022-09-09T13:16:21;93757.16;;;24.99;87.91